Home > Products > Valid Products > MTR

000
SAUS44 KMEG 310154
MTRTUP
METAR KTUP 310153Z 00000KT 10SM CLR 15/08 A3011 RMK AO2 SLP194
T01500083





000
SAUS44 KMEG 310054
MTRTUP
METAR KTUP 310053Z 12003KT 10SM CLR 18/08 A3010 RMK AO2 SLP191
T01780078





000
SAUS44 KMEG 310054
MTRTUP
METAR KTUP 310053Z 12003KT 10SM CLR 18/08 A3010 RMK AO2 SLP191
T01780078





000
SAUS44 KMEG 302354
MTRTUP
METAR KTUP 302353Z 00000KT 10SM CLR 22/05 A3010 RMK AO2 SLP189
T02170050 10233 20200 56014





000
SAUS44 KMEG 302354
MTRTUP
METAR KTUP 302353Z 00000KT 10SM CLR 22/05 A3010 RMK AO2 SLP189
T02170050 10233 20200 56014





000
SAUS44 KMEG 302254
MTRTUP
METAR KTUP 302253Z 00000KT 10SM CLR 23/04 A3010 RMK AO2 SLP190
T02280039





000
SAUS44 KMEG 302254
MTRTUP
METAR KTUP 302253Z 00000KT 10SM CLR 23/04 A3010 RMK AO2 SLP190
T02280039





000
SAUS44 KMEG 302154
MTRTUP
METAR KTUP 302153Z 10SM CLR 23/06 A3011 RMK AO2 SLP194 T02280056





000
SAUS44 KMEG 302054
MTRTUP
METAR KTUP 302053Z 00000KT 10SM CLR 22/07 A3014 RMK AO2 SLP202
T02220067 58021





000
SAUS44 KMEG 301954
MTRTUP
METAR KTUP 301953Z VRB03KT 10SM CLR 22/07 A3016 RMK AO2 SLP211
T02170067





000
SAUS44 KMEG 301954
MTRTUP
METAR KTUP 301953Z VRB03KT 10SM CLR 22/07 A3016 RMK AO2 SLP211
T02170067





000
SAUS44 KMEG 301854
MTRTUP
METAR KTUP 301853Z 05008KT 10SM CLR 21/07 A3019 RMK AO2 SLP221
T02110067





000
SAUS44 KMEG 301854
MTRTUP
METAR KTUP 301853Z 05008KT 10SM CLR 21/07 A3019 RMK AO2 SLP221
T02110067





000
SAUS44 KMEG 301754
MTRTUP
METAR KTUP 301753Z 00000KT 10SM CLR 20/07 A3020 RMK AO2 SLP224
T02000067 10206 20133 58011





000
SAUS44 KMEG 301754
MTRTUP
METAR KTUP 301753Z 00000KT 10SM CLR 20/07 A3020 RMK AO2 SLP224
T02000067 10206 20133 58011





000
SAUS44 KMEG 301655
MTRTUP
METAR KTUP 301653Z VRB04KT 10SM CLR 19/08 A3023 RMK AO2 SLP232
T01940083





000
SAUS44 KMEG 301655
MTRTUP
METAR KTUP 301653Z VRB04KT 10SM CLR 19/08 A3023 RMK AO2 SLP232
T01940083





000
SAUS44 KMEG 301554
MTRTUP
METAR KTUP 301553Z 04006KT 10SM CLR 18/08 A3024 RMK AO2 SLP238
T01780078





000
SAUS44 KMEG 301454
MTRTUP
METAR KTUP 301453Z 05008KT 10SM CLR 16/09 A3023 RMK AO2 SLP235
T01610094 51023





000
SAUS44 KMEG 301454
MTRTUP
METAR KTUP 301453Z 05008KT 10SM CLR 16/09 A3023 RMK AO2 SLP235
T01610094 51023





000
SAUS44 KMEG 301354
MTRTUP
METAR KTUP 301353Z 04011KT 10SM CLR 15/09 A3022 RMK AO2 SLP231
T01500094





000
SAUS44 KMEG 301254
MTRTUP
METAR KTUP 301253Z 02007KT 10SM CLR 14/11 A3020 RMK AO2 SLP224
T01390111





000
SAUS44 KMEG 301154
MTRTUP
METAR KTUP 301153Z 01006KT 10SM SCT090 14/12 A3016 RMK AO2 SLP212
60037 70037 T01390117 10178 20139 53025





000
SAUS44 KMEG 301154
MTRTUP
METAR KTUP 301153Z 01006KT 10SM SCT090 14/12 A3016 RMK AO2 SLP212
60037 70037 T01390117 10178 20139 53025





000
SAUS44 KMEG 301054
MTRTUP
METAR KTUP 301053Z 34004KT 10SM SCT065 BKN090 14/13 A3013 RMK AO2
SLP200 T01440128





000
SAUS44 KMEG 301054
MTRTUP
METAR KTUP 301053Z 34004KT 10SM SCT065 BKN090 14/13 A3013 RMK AO2
SLP200 T01440128





000
SAUS44 KMEG 300954
MTRTUP
METAR KTUP 300953Z AUTO 00000KT 10SM OVC042 14/13 A3009 RMK AO2
RAE14 TSE0856 SLP187 P0001 T01440133





000
SAUS44 KMEG 300906
MTRTUP
SPECI KTUP 300904Z AUTO 36003KT 7SM -RA FEW020 SCT027 OVC034 14/13
A3008 RMK AO2 LTG DSNT E-S TSE0856 P0001 T01440133





000
SAUS44 KMEG 300859
MTRTUP
SPECI KTUP 300857Z AUTO 35005KT 6SM VCTS -RA BR FEW017 BKN027 OVC032
14/13 A3009 RMK AO2 LTG DSNT E-S TSE56 P0000 T01440128





000
SAUS44 KMEG 300854
MTRTUP
METAR KTUP 300853Z AUTO 36006KT 4SM -TSRA BR FEW017 SCT025 OVC032
14/13 A3009 RMK AO2 PK WND 03026/0819 LTG DSNT E-S RAB10
TSB0758E33B41 SLP186 P0033 60036 T01440128 53011





000
SAUS44 KMEG 300852
MTRTUP
SPECI KTUP 300850Z AUTO 01006KT 3SM TSRA BR SCT017 BKN025 OVC041
14/13 A3008 RMK AO2 PK WND 03026/0819 LTG DSNT E-S RAB10
TSB0758E33B41 P0027





000
SAUS44 KMEG 300847
MTRTUP
SPECI KTUP 300846Z AUTO 01006KT 2 1/2SM +TSRA BR FEW014 BKN019
OVC033 14/13 A3008 RMK AO2 PK WND 03026/0819 VIS 1 3/4V5 LTG DSNT
E-S RAB10 TSB0758E33B41 P0027 T01440128





000
SAUS44 KMEG 300847
MTRTUP
SPECI KTUP 300846Z AUTO 01006KT 2 1/2SM +TSRA BR FEW014 BKN019
OVC033 14/13 A3008 RMK AO2 PK WND 03026/0819 VIS 1 3/4V5 LTG DSNT
E-S RAB10 TSB0758E33B41 P0027 T01440128





000
SAUS44 KMEG 300834
MTRTUP
SPECI KTUP 300833Z AUTO 04008KT 3SM VCTS +RA BR SCT012 BKN021 OVC031
14/13 A3007 RMK AO2 PK WND 03026/0819 LTG DSNT ALQDS RAB10
TSB0758E33 P0015 T01440128





000
SAUS44 KMEG 300824
MTRTUP
SPECI KTUP 300823Z AUTO 03019G26KT 4SM TSRA BR BKN012 OVC036 16/13
A3008 RMK AO2 PK WND 03026/0819 LTG DSNT ALQDS RAB10 TSB0758 P0006
T01560133





000
SAUS44 KMEG 300824
MTRTUP
SPECI KTUP 300823Z AUTO 03019G26KT 4SM TSRA BR BKN012 OVC036 16/13
A3008 RMK AO2 PK WND 03026/0819 LTG DSNT ALQDS RAB10 TSB0758 P0006
T01560133





000
SAUS44 KMEG 300806
MTRTUP
SPECI KTUP 300804Z AUTO 35007KT 10SM TS BKN036 BKN048 OVC080 17/14
A3006 RMK AO2 LTG DSNT ALQDS TSB0758 T01670139





000
SAUS44 KMEG 300806
MTRTUP
SPECI KTUP 300804Z AUTO 35007KT 10SM TS BKN036 BKN048 OVC080 17/14
A3006 RMK AO2 LTG DSNT ALQDS TSB0758 T01670139





000
SAUS44 KMEG 300754
MTRTUP
METAR KTUP 300753Z AUTO 26006KT 10SM VCTS SCT050 BKN060 OVC120 17/14
A3004 RMK AO2 LTG DSNT ALQDS RAE24B47E49 TSE08 SLP168 P0003
T01670139





000
SAUS44 KMEG 300754
MTRTUP
METAR KTUP 300753Z AUTO 26006KT 10SM VCTS SCT050 BKN060 OVC120 17/14
A3004 RMK AO2 LTG DSNT ALQDS RAE24B47E49 TSE08 SLP168 P0003
T01670139





000
SAUS44 KMEG 300735
MTRTUP
SPECI KTUP 300734Z AUTO 24008KT 10SM FEW075 SCT100 BKN120 17/14
A3004 RMK AO2 LTG DSNT ALQDS RAE24 TSE08 P0002 T01670139





000
SAUS44 KMEG 300735
MTRTUP
SPECI KTUP 300734Z AUTO 24008KT 10SM FEW075 SCT100 BKN120 17/14
A3004 RMK AO2 LTG DSNT ALQDS RAE24 TSE08 P0002 T01670139





000
SAUS44 KMEG 300715
MTRTUP
SPECI KTUP 300714Z AUTO 24011KT 9SM VCTS -RA SCT075 OVC095 17/13
A3004 RMK AO2 LTG DSNT SW AND W TSE08 P0002 T01670133





000
SAUS44 KMEG 300715
MTRTUP
SPECI KTUP 300714Z AUTO 24011KT 9SM VCTS -RA SCT075 OVC095 17/13
A3004 RMK AO2 LTG DSNT SW AND W TSE08 P0002 T01670133





000
SAUS44 KMEG 300654
MTRTUP
METAR KTUP 300653Z AUTO 25009G18KT 10SM -TSRA SCT050 BKN095 OVC110
17/13 A3005 RMK AO2 LTG DSNT ALQDS RAB32 TSB53 SLP175 P0000
T01720128





000
SAUS44 KMEG 300654
MTRTUP
METAR KTUP 300653Z AUTO 25009G18KT 10SM -TSRA SCT050 BKN095 OVC110
17/13 A3005 RMK AO2 LTG DSNT ALQDS RAB32 TSB53 SLP175 P0000
T01720128





000
SAUS44 KMEG 300651
MTRTUP
SPECI KTUP 300650Z AUTO 25011G18KT 10SM VCTS -RA SCT050 BKN095
OVC110 18/13 A3005 RMK AO2 LTG DSNT ALQDS RAB32 P0000





000
SAUS44 KMEG 300651
MTRTUP
SPECI KTUP 300650Z AUTO 25011G18KT 10SM VCTS -RA SCT050 BKN095
OVC110 18/13 A3005 RMK AO2 LTG DSNT ALQDS RAB32 P0000





000
SAUS44 KMEG 300555
MTRTUP
METAR KTUP 300553Z AUTO 22011KT 10SM BKN060 17/11 A3005 RMK AO2
SLP172 T01670111 10183 20144 401940011 57017





000
SAUS44 KMEG 300555
MTRTUP
METAR KTUP 300553Z AUTO 22011KT 10SM BKN060 17/11 A3005 RMK AO2
SLP172 T01670111 10183 20144 401940011 57017





000
SAUS44 KMEG 300455
MTRTUP
METAR KTUP 300453Z AUTO 21011KT 10SM FEW080 BKN100 15/09 A3005 RMK
AO2 SLP174 T01500089





000
SAUS44 KMEG 300455
MTRTUP
METAR KTUP 300453Z AUTO 21011KT 10SM FEW080 BKN100 15/09 A3005 RMK
AO2 SLP174 T01500089





000
SAUS44 KMEG 300354
MTRTUP
METAR KTUP 300353Z AUTO 20006KT 10SM FEW075 BKN095 15/08 A3009 RMK
AO2 SLP188 T01500078





000
SAUS44 KMEG 300354
MTRTUP
METAR KTUP 300353Z AUTO 20006KT 10SM FEW075 BKN095 15/08 A3009 RMK
AO2 SLP188 T01500078





000
SAUS44 KMEG 300254
MTRTUP
METAR KTUP 300253Z 19003KT 10SM SCT070 16/07 A3009 RMK AO2 SLP190
T01560072 53004





000
SAUS44 KMEG 300154
MTRTUP
METAR KTUP 300153Z 19006KT 10SM CLR 16/07 A3009 RMK AO2 SLP189
T01610072





000
SAUS44 KMEG 300054
MTRTUP
METAR KTUP 300053Z 19007KT 10SM CLR 16/07 A3008 RMK AO2 SLP185
T01610072





000
SAUS44 KMEG 300054
MTRTUP
METAR KTUP 300053Z 19007KT 10SM CLR 16/07 A3008 RMK AO2 SLP185
T01610072





000
SAUS44 KMEG 292354
MTRTUP
METAR KTUP 292353Z 19009KT 10SM CLR 18/07 A3008 RMK AO2 SLP186
T01830072 10194 20122 56019





000
SAUS44 KMEG 292354
MTRTUP
METAR KTUP 292353Z 19009KT 10SM CLR 18/07 A3008 RMK AO2 SLP186
T01830072 10194 20122 56019





000
SAUS44 KMEG 292254
MTRTUP
METAR KTUP 292253Z 19012KT 10SM CLR 19/07 A3008 RMK AO2 SLP186
T01940072





000
SAUS44 KMEG 292254
MTRTUP
METAR KTUP 292253Z 19012KT 10SM CLR 19/07 A3008 RMK AO2 SLP186
T01940072





000
SAUS44 KMEG 292154
MTRTUP
METAR KTUP 292153Z AUTO 20013KT 10SM CLR 19/06 A3012 RMK AO2 SLP198
T01890061





000
SAUS44 KMEG 292054
MTRTUP
METAR KTUP 292053Z AUTO 19012KT 10SM CLR 18/06 A3014 RMK AO2 SLP205
T01780056 58027





000
SAUS44 KMEG 291954
MTRTUP
METAR KTUP 291953Z AUTO 20012G18KT 10SM FEW036 17/04 A3017 RMK AO2
SLP217 T01670039





000
SAUS44 KMEG 291921
MTRTUP
SPECI KTUP 291920Z 18010G17KT 10SM SCT029 SCT036 16/03 A3019 RMK AO2
T01610033





000
SAUS44 KMEG 291854
MTRTUP
METAR KTUP 291853Z 18010KT 10SM BKN028 13/01 A3022 RMK AO2 SLP233
T01330011





000
SAUS44 KMEG 291854
MTRTUP
METAR KTUP 291853Z 18010KT 10SM BKN028 13/01 A3022 RMK AO2 SLP233
T01330011





000
SAUS44 KMEG 291852
MTRTUP
SPECI KTUP 291851Z 18011KT 10SM BKN028 BKN035 13/01 A3022 RMK AO2





000
SAUS44 KMEG 291852
MTRTUP
SPECI KTUP 291851Z 18011KT 10SM BKN028 BKN035 13/01 A3022 RMK AO2





000
SAUS44 KMEG 291754
MTRTUP
METAR KTUP 291753Z 20016KT 10SM OVC036 13/M01 A3026 RMK AO2 SLP249
T01281006 10128 20033 58020





000
SAUS44 KMEG 291754
MTRTUP
METAR KTUP 291753Z 20016KT 10SM OVC036 13/M01 A3026 RMK AO2 SLP249
T01281006 10128 20033 58020





000
SAUS44 KMEG 291737
MTRTUP
SPECI KTUP 291736Z 17011G17KT 10SM SCT025 OVC034 11/M02 A3027 RMK
AO2 T01111022





000
SAUS44 KMEG 291737
MTRTUP
SPECI KTUP 291736Z 17011G17KT 10SM SCT025 OVC034 11/M02 A3027 RMK
AO2 T01111022





000
SAUS44 KMEG 291654
MTRTUP
METAR KTUP 291653Z 19009KT 10SM OVC025 10/M02 A3030 RMK AO2 SLP260
T01001022





000
SAUS44 KMEG 291642
MTRTUP
SPECI KTUP 291641Z 19011KT 10SM OVC027 09/M03 A3030 RMK AO2
T00941028





000
SAUS44 KMEG 291613
MTRTUP
SPECI KTUP 291612Z 18011KT 10SM OVC030 09/M03 A3032 RMK AO2
T00941033





000
SAUS44 KMEG 291554
MTRTUP
METAR KTUP 291553Z 18011KT 10SM OVC026 09/M05 A3032 RMK AO2 SLP266
T00891050





000
SAUS44 KMEG 291554
MTRTUP
METAR KTUP 291553Z 18011KT 10SM OVC026 09/M05 A3032 RMK AO2 SLP266
T00891050





000
SAUS44 KMEG 291511
MTRTUP
SPECI KTUP 291510Z 19009KT 10SM OVC029 08/M05 A3032 RMK AO2
T00781050





000
SAUS44 KMEG 291511
MTRTUP
SPECI KTUP 291510Z 19009KT 10SM OVC029 08/M05 A3032 RMK AO2
T00781050





000
SAUS44 KMEG 291454
MTRTUP
METAR KTUP 291453Z 18011KT 10SM OVC031 08/M04 A3032 RMK AO2 SLP269
T00781044 51008





000
SAUS44 KMEG 291354
MTRTUP
METAR KTUP 291353Z 16009KT 10SM OVC043 07/M04 A3032 RMK AO2 SLP267
T00671039





000
SAUS44 KMEG 291354
MTRTUP
METAR KTUP 291353Z 16009KT 10SM OVC043 07/M04 A3032 RMK AO2 SLP267
T00671039





000
SAUS44 KMEG 291254
MTRTUP
METAR KTUP 291253Z 17006KT 10SM FEW065 04/M03 A3032 RMK AO2 SLP269
T00441033





000
SAUS44 KMEG 291254
MTRTUP
METAR KTUP 291253Z 17006KT 10SM FEW065 04/M03 A3032 RMK AO2 SLP269
T00441033





000
SAUS44 KMEG 291154
MTRTUP
METAR KTUP 291153Z 16007KT 10SM OVC070 03/M02 A3030 RMK AO2 SLP261
T00331022 10039 20011 58000





000
SAUS44 KMEG 291154
MTRTUP
METAR KTUP 291153Z 16007KT 10SM OVC070 03/M02 A3030 RMK AO2 SLP261
T00331022 10039 20011 58000





000
SAUS44 KMEG 291054
MTRTUP
METAR KTUP 291053Z 15006KT 10SM OVC060 03/M01 A3030 RMK AO2 SLP261
T00281006





000
SAUS44 KMEG 290954
MTRTUP
METAR KTUP 290953Z AUTO 00000KT 10SM CLR 01/M02 A3030 RMK AO2 SLP263
T00111017





000
SAUS44 KMEG 290954
MTRTUP
METAR KTUP 290953Z AUTO 00000KT 10SM CLR 01/M02 A3030 RMK AO2 SLP263
T00111017





000
SAUS44 KMEG 290854
MTRTUP
METAR KTUP 290853Z AUTO 00000KT 10SM CLR 02/M02 A3030 RMK AO2 SLP262
T00221017 58006





000
SAUS44 KMEG 290754
MTRTUP
METAR KTUP 290753Z AUTO 00000KT 10SM CLR 03/M02 A3031 RMK AO2 SLP265
T00281017





000
SAUS44 KMEG 290754
MTRTUP
METAR KTUP 290753Z AUTO 00000KT 10SM CLR 03/M02 A3031 RMK AO2 SLP265
T00281017





000
SAUS44 KMEG 290654
MTRTUP
METAR KTUP 290653Z AUTO 08004KT 10SM CLR 03/M01 A3031 RMK AO2 SLP265
T00281011





000
SAUS44 KMEG 290654
MTRTUP
METAR KTUP 290653Z AUTO 08004KT 10SM CLR 03/M01 A3031 RMK AO2 SLP265
T00281011





000
SAUS44 KMEG 290554
MTRTUP
METAR KTUP 290553Z AUTO 07004KT 10SM BKN070 04/M01 A3032 RMK AO2
SLP268 T00391006 10050 20039 400721011 58003





000
SAUS44 KMEG 290554
MTRTUP
METAR KTUP 290553Z AUTO 07004KT 10SM BKN070 04/M01 A3032 RMK AO2
SLP268 T00391006 10050 20039 400721011 58003





000
SAUS44 KMEG 290454
MTRTUP
METAR KTUP 290453Z AUTO 05003KT 10SM OVC070 05/00 A3033 RMK AO2
SLP271 T00500000





000
SAUS44 KMEG 290454
MTRTUP
METAR KTUP 290453Z AUTO 05003KT 10SM OVC070 05/00 A3033 RMK AO2
SLP271 T00500000





000
SAUS44 KMEG 290354
MTRTUP
METAR KTUP 290353Z AUTO 00000KT 10SM OVC075 05/M01 A3033 RMK AO2
SLP272 T00501011





000
SAUS44 KMEG 290354
MTRTUP
METAR KTUP 290353Z AUTO 00000KT 10SM OVC075 05/M01 A3033 RMK AO2
SLP272 T00501011





000
SAUS44 KMEG 290254
MTRTUP
METAR KTUP 290253Z AUTO 00000KT 10SM OVC075 05/M01 A3033 RMK AO2
SLP271 T00501006 53018





000
SAUS44 KMEG 290254
MTRTUP
METAR KTUP 290253Z AUTO 00000KT 10SM OVC075 05/M01 A3033 RMK AO2
SLP271 T00501006 53018





000
SAUS44 KMEG 290154
MTRTUP
METAR KTUP 290153Z AUTO 33003KT 10SM OVC075 05/M01 A3031 RMK AO2
SLP264 T00501011





000
SAUS44 KMEG 290154
MTRTUP
METAR KTUP 290153Z AUTO 33003KT 10SM OVC075 05/M01 A3031 RMK AO2
SLP264 T00501011





000
SAUS44 KMEG 290054
MTRTUP
METAR KTUP 290053Z 30003KT 10SM OVC065 05/M02 A3029 RMK AO2 SLP258
T00501017





000
SAUS44 KMEG 290054
MTRTUP
METAR KTUP 290053Z 30003KT 10SM OVC065 05/M02 A3029 RMK AO2 SLP258
T00501017





000
SAUS44 KMEG 282354
MTRTUP
METAR KTUP 282353Z 30003KT 10SM OVC070 05/M02 A3027 RMK AO2 SLP253
T00501017 10072 20050 55002





000
SAUS44 KMEG 282354
MTRTUP
METAR KTUP 282353Z 30003KT 10SM OVC070 05/M02 A3027 RMK AO2 SLP253
T00501017 10072 20050 55002





000
SAUS44 KMEG 282254
MTRTUP
METAR KTUP 282253Z 31003KT 10SM OVC070 06/M02 A3027 RMK AO2 SLP251
T00561022





000
SAUS44 KMEG 282254
MTRTUP
METAR KTUP 282253Z 31003KT 10SM OVC070 06/M02 A3027 RMK AO2 SLP251
T00561022





000
SAUS44 KMEG 282154
MTRTUP
METAR KTUP 282153Z 00000KT 10SM OVC080 06/M03 A3026 RMK AO2 SLP247
T00611033





000
SAUS44 KMEG 282054
MTRTUP
METAR KTUP 282053Z 08004KT 10SM OVC090 07/M04 A3028 RMK AO2 SLP255
T00671039 56009





000
SAUS44 KMEG 281954
MTRTUP
METAR KTUP 281953Z 08005KT 10SM BKN050 OVC070 07/M05 A3028 RMK AO2
SLP256 T00671050





000
SAUS44 KMEG 281854
MTRTUP
METAR KTUP 281853Z 36004KT 10SM SCT080 OVC100 07/M06 A3029 RMK AO2
SLP259 T00721056





000
SAUS44 KMEG 281854
MTRTUP
METAR KTUP 281853Z 36004KT 10SM SCT080 OVC100 07/M06 A3029 RMK AO2
SLP259 T00721056





000
SAUS44 KMEG 281754
MTRTUP
METAR KTUP 281753Z 02007KT 10SM BKN065 OVC080 06/M07 A3031 RMK AO2
SLP264 T00611067 10061 21006 58000





000
SAUS44 KMEG 281754
MTRTUP
METAR KTUP 281753Z 02007KT 10SM BKN065 OVC080 06/M07 A3031 RMK AO2
SLP264 T00611067 10061 21006 58000





000
SAUS44 KMEG 281654
MTRTUP
METAR KTUP 281653Z 02008KT 10SM FEW070 BKN090 OVC110 06/M07 A3031
RMK AO2 SLP267 T00611067





000
SAUS44 KMEG 281654
MTRTUP
METAR KTUP 281653Z 02008KT 10SM FEW070 BKN090 OVC110 06/M07 A3031
RMK AO2 SLP267 T00611067





000
SAUS44 KMEG 281554
MTRTUP
METAR KTUP 281553Z 06004KT 10SM FEW060 SCT080 BKN110 06/M07 A3031
RMK AO2 SLP266 T00561067





000
SAUS44 KMEG 281454
MTRTUP
METAR KTUP 281453Z 03006KT 10SM OVC100 04/M06 A3031 RMK AO2 SLP264
T00441056 53027





000
SAUS44 KMEG 281454
MTRTUP
METAR KTUP 281453Z 03006KT 10SM OVC100 04/M06 A3031 RMK AO2 SLP264
T00441056 53027





000
SAUS44 KMEG 281356 COR
MTRTUP
METAR KTUP 281353Z 09005KT 10SM CLR 04/M03 A3027 RMK AO2 SLP251
T00391033





000
SAUS44 KMEG 281356 COR
MTRTUP
METAR KTUP 281353Z 09005KT 10SM CLR 04/M03 A3027 RMK AO2 SLP251
T00391033





000
SAUS44 KMEG 281254
MTRTUP
METAR KTUP 281253Z 01003KT 10SM SCT090 01/M03 A3026 RMK AO2 SLP247
T00111033





000
SAUS44 KMEG 281254
MTRTUP
METAR KTUP 281253Z 01003KT 10SM SCT090 01/M03 A3026 RMK AO2 SLP247
T00111033





000
SAUS44 KMEG 281154
MTRTUP
METAR KTUP 281153Z 03005KT 10SM CLR M01/M03 A3023 RMK AO2 SLP237
70005 T10061033 10022 21011 51017





000
SAUS44 KMEG 281154
MTRTUP
METAR KTUP 281153Z 03005KT 10SM CLR M01/M03 A3023 RMK AO2 SLP237
70005 T10061033 10022 21011 51017





000
SAUS44 KMEG 281054
MTRTUP
METAR KTUP 281053Z 02004KT 10SM BKN085 OVC110 01/M03 A3021 RMK AO2
SLP232 T00061033





000
SAUS44 KMEG 281054
MTRTUP
METAR KTUP 281053Z 02004KT 10SM BKN085 OVC110 01/M03 A3021 RMK AO2
SLP232 T00061033





000
SAUS44 KMEG 280954
MTRTUP
METAR KTUP 280953Z 34003KT 10SM SCT090 01/M03 A3020 RMK AO2 SLP226
T00061028





000
SAUS44 KMEG 280854
MTRTUP
METAR KTUP 280853Z 04006KT 10SM BKN095 01/M03 A3018 RMK AO2 SLP219
T00061028 58003





000
SAUS44 KMEG 280854
MTRTUP
METAR KTUP 280853Z 04006KT 10SM BKN095 01/M03 A3018 RMK AO2 SLP219
T00061028 58003





000
SAUS44 KMEG 280754
MTRTUP
METAR KTUP 280753Z 03006KT 10SM BKN120 02/M02 A3018 RMK AO2 SLP220
T00221022





000
SAUS44 KMEG 280754
MTRTUP
METAR KTUP 280753Z 03006KT 10SM BKN120 02/M02 A3018 RMK AO2 SLP220
T00221022





000
SAUS44 KMEG 280654
MTRTUP
METAR KTUP 280653Z 01004KT 10SM CLR 02/M02 A3019 RMK AO2 SLP223
T00221017





000
SAUS44 KMEG 280554
MTRTUP
METAR KTUP 280553Z 01003KT 10SM CLR 02/M02 A3019 RMK AO2 SLP222
T00171022 10072 20011 401170011 51008





000
SAUS44 KMEG 280554
MTRTUP
METAR KTUP 280553Z 01003KT 10SM CLR 02/M02 A3019 RMK AO2 SLP222
T00171022 10072 20011 401170011 51008





000
SAUS44 KMEG 280454
MTRTUP
METAR KTUP 280453Z 03007KT 10SM CLR 02/M02 A3018 RMK AO2 SLP221
T00221022





000
SAUS44 KMEG 280454
MTRTUP
METAR KTUP 280453Z 03007KT 10SM CLR 02/M02 A3018 RMK AO2 SLP221
T00221022





000
SAUS44 KMEG 280354
MTRTUP
METAR KTUP 280353Z 03010KT 10SM CLR 03/M01 A3017 RMK AO2 SLP217
T00281011





000
SAUS44 KMEG 280354
MTRTUP
METAR KTUP 280353Z 03010KT 10SM CLR 03/M01 A3017 RMK AO2 SLP217
T00281011





000
SAUS44 KMEG 280254
MTRTUP
METAR KTUP 280253Z 03009KT 10SM CLR 04/M01 A3016 RMK AO2 SLP214
T00441006 53025





000
SAUS44 KMEG 280254
MTRTUP
METAR KTUP 280253Z 03009KT 10SM CLR 04/M01 A3016 RMK AO2 SLP214
T00441006 53025





    US Dept of Commerce
    National Oceanic and Atmospheric Administration
    National Weather Service
    1325 East West Highway
    Silver Spring, MD 20910
    Page Author: NWS Internet Services Team
Disclaimer
Information Quality
Credits
Glossary
Privacy Policy
Freedom of Information Act (FOIA)
About Us
Career Opportunities